createdAt,value
2023-01-03T00:00:31.121Z,3.61
2023-01-03T00:05:35.539Z,3.63
2023-01-03T00:10:38.594Z,3.57
2023-01-03T00:15:42.807Z,3.64
2023-01-03T00:20:45.692Z,3.64
2023-01-03T00:25:48.508Z,3.55
2023-01-03T00:30:52.771Z,3.51
2023-01-03T00:35:55.580Z,3.42
2023-01-03T00:41:05.431Z,3.29
2023-01-03T00:46:10.716Z,3.27
2023-01-03T00:51:16.110Z,3.29
2023-01-03T00:56:21.776Z,3.29
2023-01-03T01:01:28.117Z,3.24
2023-01-03T01:06:32.809Z,3.27
2023-01-03T01:11:35.920Z,3.31
2023-01-03T01:16:40.059Z,3.20
2023-01-03T01:21:44.296Z,3.25
2023-01-03T01:26:48.493Z,3.19
2023-01-03T01:31:52.674Z,3.22
2023-01-03T01:36:55.488Z,3.14
2023-01-03T01:42:20.475Z,3.07
2023-01-03T01:47:39.517Z,3.13
2023-01-03T01:52:46.088Z,3.08
2023-01-03T01:57:49.119Z,3.01
2023-01-03T02:02:54.209Z,3.07
2023-01-03T02:07:59.424Z,3.01
2023-01-03T02:13:08.408Z,2.99
2023-01-03T02:18:34.358Z,3.06
2023-01-03T02:24:25.032Z,3.01
2023-01-03T02:30:00.770Z,3.05
2023-01-03T02:35:06.742Z,3.06
2023-01-03T02:40:15.235Z,3.21
2023-01-03T02:45:20.981Z,3.11
2023-01-03T02:50:26.109Z,3.11
2023-01-03T02:55:31.748Z,3.11
2023-01-03T03:00:41.405Z,3.14
2023-01-03T03:05:48.887Z,3.07
2023-01-03T03:11:09.524Z,2.95
2023-01-03T03:16:18.480Z,2.82
2023-01-03T03:21:39.298Z,2.84
2023-01-03T03:26:44.081Z,2.74
2023-01-03T03:31:50.687Z,2.73
2023-01-03T03:36:56.497Z,2.71
2023-01-03T03:42:26.919Z,2.75
2023-01-03T03:47:38.504Z,2.69
2023-01-03T03:52:44.099Z,2.66
2023-01-03T03:57:48.823Z,2.65
2023-01-03T04:02:53.957Z,2.64
2023-01-03T04:07:56.995Z,2.48
2023-01-03T04:12:59.867Z,2.50
2023-01-03T04:18:04.211Z,2.44
2023-01-03T04:23:07.064Z,2.52
2023-01-03T04:28:10.114Z,2.56
2023-01-03T04:33:14.355Z,2.37
2023-01-03T04:38:18.539Z,2.42
2023-01-03T04:43:38.955Z,2.44
2023-01-03T04:48:43.271Z,2.38
2023-01-03T04:53:46.081Z,2.41
2023-01-03T04:58:48.975Z,2.50
2023-01-03T05:03:53.314Z,2.27
2023-01-03T05:08:56.344Z,2.29
2023-01-03T05:13:59.140Z,2.41
2023-01-03T05:19:03.328Z,2.49
2023-01-03T05:24:25.024Z,2.50
2023-01-03T05:29:29.187Z,2.48
2023-01-03T05:34:33.369Z,2.47
2023-01-03T05:39:36.729Z,2.47
2023-01-03T05:44:39.610Z,2.41
2023-01-03T05:49:43.811Z,2.61
2023-01-03T05:54:46.628Z,2.57
2023-01-03T05:59:49.475Z,2.55
2023-01-03T06:04:53.767Z,2.71
2023-01-03T06:09:56.629Z,2.71
2023-01-03T06:14:59.461Z,2.84
2023-01-03T06:20:04.113Z,2.91
2023-01-03T06:25:07.332Z,3.06
2023-01-03T06:30:11.778Z,3.18
2023-01-03T06:35:16.201Z,3.23
2023-01-03T06:40:19.460Z,3.26
2023-01-03T06:45:40.450Z,3.23
2023-01-03T06:51:02.654Z,3.38
2023-01-03T06:56:05.996Z,3.46
2023-01-03T07:01:09.039Z,3.59
2023-01-03T07:06:13.522Z,3.51
2023-01-03T07:11:16.399Z,3.72
2023-01-03T07:16:20.720Z,3.73
2023-01-03T07:21:25.450Z,3.82
2023-01-03T07:26:30.296Z,3.98
2023-01-03T07:31:33.709Z,3.94
2023-01-03T07:36:38.078Z,4.05
2023-01-03T07:42:12.906Z,4.20
2023-01-03T07:47:15.777Z,4.37
2023-01-03T07:52:20.035Z,4.53
2023-01-03T07:57:22.915Z,4.56
2023-01-03T08:02:25.864Z,4.71
2023-01-03T08:07:30.327Z,4.78
2023-01-03T08:12:50.533Z,4.75
2023-01-03T08:17:53.337Z,4.89
2023-01-03T08:23:00.418Z,4.74
2023-01-03T08:28:04.156Z,4.55
2023-01-03T08:33:09.250Z,4.44
2023-01-03T08:38:15.958Z,4.32
2023-01-03T08:43:19.334Z,4.29
2023-01-03T08:48:23.537Z,4.37
2023-01-03T08:53:28.872Z,4.51
2023-01-03T08:58:31.921Z,4.70
2023-01-03T09:03:37.706Z,4.55
2023-01-03T09:08:42.108Z,4.50
2023-01-03T09:13:48.588Z,4.68
2023-01-03T09:18:56.650Z,5.10
2023-01-03T09:24:00.986Z,5.38
2023-01-03T09:29:04.477Z,5.58
2023-01-03T09:34:07.367Z,5.62
2023-01-03T09:39:11.640Z,5.91
2023-01-03T09:44:14.438Z,6.03
2023-01-03T09:49:17.304Z,6.17
2023-01-03T09:54:45.211Z,6.29
2023-01-03T10:00:05.711Z,6.33
2023-01-03T10:05:36.838Z,6.35
2023-01-03T10:10:48.910Z,6.59
2023-01-03T10:15:58.459Z,6.79
2023-01-03T10:21:07.906Z,6.72
2023-01-03T10:26:13.378Z,6.63
2023-01-03T10:31:41.476Z,6.69
2023-01-03T10:36:44.350Z,6.79
2023-01-03T10:41:52.400Z,6.77
2023-01-03T10:46:57.416Z,6.87
2023-01-03T10:52:02.332Z,7.13
2023-01-03T10:57:08.087Z,7.13
2023-01-03T11:02:17.345Z,7.18
2023-01-03T11:07:20.335Z,7.14
2023-01-03T11:12:29.978Z,7.11
2023-01-03T11:17:32.926Z,7.23
2023-01-03T11:22:39.885Z,7.23
2023-01-03T11:28:09.070Z,7.36
2023-01-03T11:33:48.509Z,7.43
2023-01-03T11:38:59.078Z,7.46
2023-01-03T11:44:44.823Z,7.51
2023-01-03T11:50:04.226Z,7.61
2023-01-03T11:55:38.962Z,7.64
2023-01-03T12:00:47.929Z,7.88
2023-01-03T12:05:52.880Z,7.92
2023-01-03T12:11:05.020Z,7.95
2023-01-03T12:16:12.758Z,8.07
2023-01-03T12:21:19.656Z,8.03
2023-01-03T12:26:25.903Z,8.05
2023-01-03T12:31:32.992Z,8.06
2023-01-03T12:36:42.421Z,8.16
2023-01-03T12:41:48.491Z,8.11
2023-01-03T12:46:54.269Z,8.11
2023-01-03T12:51:57.214Z,8.20
2023-01-03T12:57:21.051Z,8.29
2023-01-03T13:02:31.994Z,8.28
2023-01-03T13:07:35.532Z,8.36
2023-01-03T13:12:40.737Z,8.23
2023-01-03T13:17:47.072Z,8.47
2023-01-03T13:22:52.578Z,8.46
2023-01-03T13:27:58.274Z,8.41
2023-01-03T13:33:18.722Z,8.47
2023-01-03T13:38:27.852Z,8.55
2023-01-03T13:43:39.287Z,8.62
2023-01-03T13:48:54.396Z,8.70
2023-01-03T13:54:00.550Z,8.69
2023-01-03T14:05:04.443Z,8.56
2023-01-03T14:10:22.772Z,8.42
2023-01-03T14:15:27.315Z,8.53
2023-01-03T14:20:39.641Z,8.47
2023-01-03T14:25:43.664Z,8.44
2023-01-03T14:30:47.181Z,8.41
2023-01-03T14:36:02.153Z,8.34
2023-01-03T14:41:05.182Z,8.36
2023-01-03T14:46:09.236Z,8.28
2023-01-03T14:51:14.330Z,8.27
2023-01-03T14:56:17.730Z,8.24
2023-01-03T15:01:21.572Z,8.23
2023-01-03T15:06:31.269Z,8.29
2023-01-03T15:11:55.834Z,8.34
2023-01-03T15:17:05.793Z,8.25
2023-01-03T15:22:15.395Z,8.19
2023-01-03T15:27:43.857Z,8.16
2023-01-03T15:32:49.441Z,8.07
2023-01-03T15:38:00.528Z,8.04
2023-01-03T15:43:23.710Z,7.94
2023-01-03T15:48:27.921Z,7.85
2023-01-03T15:53:39.194Z,7.86
2023-01-03T15:58:46.408Z,7.85
2023-01-03T16:03:49.876Z,7.96
2023-01-03T16:08:54.466Z,8.04
2023-01-03T16:14:02.194Z,8.06
2023-01-03T16:19:17.962Z,8.07
2023-01-03T16:24:22.398Z,8.04
2023-01-03T16:29:25.325Z,8.03
2023-01-03T16:34:33.588Z,8.02
2023-01-03T16:39:45.705Z,8.09
2023-01-03T16:44:50.829Z,8.07
2023-01-03T16:49:56.073Z,8.08
2023-01-03T16:55:02.114Z,8.06
2023-01-03T17:00:18.998Z,8.12
2023-01-03T17:05:22.069Z,8.12
2023-01-03T17:10:28.930Z,8.03
2023-01-03T17:15:32.876Z,8.05
2023-01-03T17:20:36.088Z,8.02
2023-01-03T17:25:41.330Z,7.99
2023-01-03T17:30:45.183Z,8.07
2023-01-03T17:35:48.156Z,8.14
2023-01-03T17:40:55.449Z,8.13
2023-01-03T17:46:23.132Z,8.08
2023-01-03T17:51:26.899Z,8.03
2023-01-03T17:56:32.494Z,7.97
2023-01-03T18:01:35.721Z,7.96
2023-01-03T18:06:41.616Z,7.92
2023-01-03T18:11:48.700Z,7.90
2023-01-03T18:16:55.029Z,7.91
2023-01-03T18:22:00.750Z,7.94
2023-01-03T18:27:09.388Z,7.98
2023-01-03T18:32:24.959Z,8.04
2023-01-03T18:37:32.119Z,8.13
2023-01-03T18:42:58.433Z,8.17
2023-01-03T18:48:01.695Z,8.20
2023-01-03T18:53:05.154Z,8.20
2023-01-03T18:58:17.964Z,8.21
2023-01-03T19:03:24.220Z,8.17
2023-01-03T19:08:28.833Z,8.08
2023-01-03T19:14:00.062Z,8.15
2023-01-03T19:19:03.523Z,8.16
2023-01-03T19:24:09.189Z,8.22
2023-01-03T19:29:37.685Z,8.23
2023-01-03T19:34:40.560Z,8.22
2023-01-03T19:39:43.497Z,8.28
2023-01-03T19:44:51.300Z,8.29
2023-01-03T19:49:54.868Z,8.32
2023-01-03T19:54:57.804Z,8.39
2023-01-03T20:00:05.793Z,8.38
2023-01-03T20:05:19.131Z,8.39
2023-01-03T20:10:24.114Z,8.48
2023-01-03T20:15:30.718Z,8.50
2023-01-03T20:20:34.294Z,8.54
2023-01-03T20:25:39.873Z,8.55
2023-01-03T20:30:44.177Z,8.58
2023-01-03T20:41:10.554Z,8.71
2023-01-03T20:46:19.822Z,8.61
2023-01-03T20:51:46.526Z,8.77
2023-01-03T20:56:49.343Z,8.81
2023-01-03T21:01:53.803Z,8.79
2023-01-03T21:06:58.081Z,8.84
2023-01-03T21:12:01.132Z,8.72
2023-01-03T21:17:06.577Z,8.60
2023-01-03T21:22:20.045Z,8.59
2023-01-03T21:27:22.954Z,8.64
2023-01-03T21:32:27.187Z,8.75
2023-01-03T21:37:30.110Z,8.82
2023-01-03T21:42:55.066Z,8.75
2023-01-03T21:48:04.220Z,9.01
2023-01-03T21:53:07.397Z,9.02
2023-01-03T21:58:11.600Z,9.05
2023-01-03T22:09:01.205Z,9.08
2023-01-03T22:14:04.057Z,9.11
2023-01-03T22:19:10.644Z,9.12
2023-01-03T22:24:13.998Z,9.19
2023-01-03T22:29:17.290Z,9.22
2023-01-03T22:34:21.584Z,9.22
2023-01-03T22:39:24.874Z,9.24
2023-01-03T22:44:29.899Z,9.13
2023-01-03T22:49:34.129Z,9.00
2023-01-03T22:54:37.132Z,8.93
2023-01-03T22:59:40.442Z,8.82
2023-01-03T23:04:47.612Z,8.72
2023-01-03T23:09:50.594Z,8.71
2023-01-03T23:14:53.441Z,8.72
2023-01-03T23:19:59.267Z,8.71
2023-01-03T23:25:04.932Z,8.63
2023-01-03T23:30:09.083Z,8.63
2023-01-03T23:35:13.372Z,8.71
2023-01-03T23:40:17.172Z,8.69
2023-01-03T23:45:20.025Z,8.70
2023-01-03T23:50:24.302Z,8.72
2023-01-03T23:55:27.158Z,8.71
